Time;durP1;ratioP1;P1;durP2;ratioP2;P2;SDS_P1;SDS_P2;PMS_P1;PMS_P2;Temp;Humidity;BMP_temperature;BMP_pressure;BME280_temperature;BME280_humidity;BME280_pressure;Samples;Min_cycle;Max_cycle;Signal;HPM_P1;HPM_P2
2023/09/14 00:00:45;;;;;;;2.88;1.80;;;;;;;;;;7366529;19;20006;-67
2023/09/14 00:03:11;;;;;;;6.75;1.65;;;;;;;;;;7363798;19;20158;-66
2023/09/14 00:05:40;;;;;;;3.08;1.65;;;;;;;;;;7364286;19;20006;-67
2023/09/14 00:08:05;;;;;;;3.38;1.83;;;;;;;;;;7388445;19;19999;-67
2023/09/14 00:10:30;;;;;;;3.42;1.55;;;;;;;;;;7365848;19;20009;-66
2023/09/14 00:12:55;;;;;;;3.78;1.50;;;;;;;;;;7360894;19;20003;-67
2023/09/14 00:15:21;;;;;;;2.55;1.60;;;;;;;;;;7365256;19;20007;-67
2023/09/14 00:17:46;;;;;;;3.47;1.75;;;;;;;;;;7366384;19;20448;-65
2023/09/14 00:20:20;;;;;;;4.93;1.80;;;;;;;;;;7366460;19;20087;-66
2023/09/14 00:22:47;;;;;;;2.95;1.75;;;;;;;;;;7385935;19;20041;-67
2023/09/14 00:25:12;;;;;;;5.22;1.77;;;;;;;;;;7366715;19;20006;-66
2023/09/14 00:27:38;;;;;;;3.05;1.80;;;;;;;;;;7368682;19;20022;-66
2023/09/14 00:30:04;;;;;;;4.95;2.00;;;;;;;;;;7373717;19;20018;-66
2023/09/14 00:32:29;;;;;;;3.45;1.67;;;;;;;;;;7371514;19;20533;-67
2023/09/14 00:34:54;;;;;;;2.80;1.67;;;;;;;;;;7395130;19;20011;-66
2023/09/14 00:37:20;;;;;;;4.53;1.60;;;;;;;;;;7372186;19;20618;-66
2023/09/14 00:39:45;;;;;;;4.30;1.70;;;;;;;;;;7373740;19;20037;-66
2023/09/14 00:42:10;;;;;;;2.80;1.40;;;;;;;;;;7373082;19;20049;-66
2023/09/14 00:44:35;;;;;;;3.67;1.60;;;;;;;;;;7374012;19;20049;-66
2023/09/14 00:47:01;;;;;;;4.45;2.28;;;;;;;;;;7396752;19;20019;-66
2023/09/14 00:49:26;;;;;;;5.15;1.83;;;;;;;;;;7372525;19;20077;-66
2023/09/14 00:51:52;;;;;;;6.07;2.08;;;;;;;;;;7371258;19;20007;-66
2023/09/14 00:54:17;;;;;;;8.52;2.08;;;;;;;;;;7371218;19;20018;-66
2023/09/14 00:56:43;;;;;;;6.45;2.03;;;;;;;;;;7371810;19;20022;-66
2023/09/14 00:59:09;;;;;;;6.90;2.40;;;;;;;;;;7395110;19;20006;-66
2023/09/14 01:01:34;;;;;;;4.82;1.98;;;;;;;;;;7370828;19;20007;-66
2023/09/14 01:04:00;;;;;;;3.28;1.80;;;;;;;;;;7370831;19;20041;-66
2023/09/14 01:06:26;;;;;;;5.50;2.13;;;;;;;;;;7371525;19;20011;-66
2023/09/14 01:08:53;;;;;;;5.68;1.70;;;;;;;;;;7372097;19;20006;-67
2023/09/14 01:11:18;;;;;;;5.45;2.10;;;;;;;;;;7371896;19;20023;-66
2023/09/14 01:13:59;;;;;;;5.53;1.95;;;;;;;;;;7390250;19;19998;-66
2023/09/14 01:16:32;;;;;;;5.30;2.17;;;;;;;;;;7370690;19;20014;-66
2023/09/14 01:19:31;;;;;;;3.08;1.85;;;;;;;;;;7370810;19;20563;-66
2023/09/14 01:22:11;;;;;;;5.20;1.70;;;;;;;;;;7368432;19;20007;-66
2023/09/14 01:25:01;;;;;;;6.30;2.08;;;;;;;;;;7370914;19;20029;-66
2023/09/14 01:27:26;;;;;;;4.05;1.90;;;;;;;;;;7372446;19;20154;-66
2023/09/14 01:29:56;;;;;;;5.80;1.90;;;;;;;;;;7371405;19;20006;-66
2023/09/14 01:32:21;;;;;;;6.18;1.92;;;;;;;;;;7369796;19;20365;-66
2023/09/14 01:34:47;;;;;;;4.60;2.05;;;;;;;;;;7392577;19;19991;-66
2023/09/14 01:37:14;;;;;;;4.18;1.73;;;;;;;;;;7370046;19;20014;-67
2023/09/14 01:39:40;;;;;;;4.82;2.10;;;;;;;;;;7367626;19;20073;-66
2023/09/14 01:42:06;;;;;;;5.13;2.00;;;;;;;;;;7368731;19;20006;-66
2023/09/14 01:44:31;;;;;;;5.75;2.00;;;;;;;;;;7370363;19;20034;-66
2023/09/14 01:46:57;;;;;;;5.10;2.00;;;;;;;;;;7392200;19;20297;-67
2023/09/14 01:49:22;;;;;;;7.47;2.20;;;;;;;;;;7369968;19;20053;-66
2023/09/14 01:51:47;;;;;;;8.57;2.03;;;;;;;;;;7369092;19;20003;-66
2023/09/14 01:54:13;;;;;;;7.05;2.25;;;;;;;;;;7367804;19;20006;-66
2023/09/14 01:56:39;;;;;;;8.45;2.40;;;;;;;;;;7369736;19;20096;-66
2023/09/14 01:59:04;;;;;;;8.85;3.53;;;;;;;;;;7390742;19;20007;-67
2023/09/14 02:01:30;;;;;;;15.25;3.42;;;;;;;;;;7366055;19;20007;-67
2023/09/14 02:03:55;;;;;;;10.55;2.63;;;;;;;;;;7365239;19;20002;-67
2023/09/14 02:06:21;;;;;;;8.68;2.75;;;;;;;;;;7366718;19;20461;-67
2023/09/14 02:08:46;;;;;;;11.27;3.05;;;;;;;;;;7367605;19;20082;-67
2023/09/14 02:11:13;;;;;;;11.30;3.15;;;;;;;;;;7367774;19;20005;-67
2023/09/14 02:13:39;;;;;;;16.73;3.75;;;;;;;;;;7386667;19;20373;-67
2023/09/14 02:16:05;;;;;;;17.15;3.63;;;;;;;;;;7367141;19;20006;-67
2023/09/14 02:18:31;;;;;;;24.48;4.45;;;;;;;;;;7369195;19;20013;-67
2023/09/14 02:20:56;;;;;;;28.00;4.55;;;;;;;;;;7369110;19;20010;-67
2023/09/14 02:23:21;;;;;;;21.20;4.22;;;;;;;;;;7367474;19;20011;-67
2023/09/14 02:25:49;;;;;;;22.70;4.40;;;;;;;;;;7391337;19;19991;-67
2023/09/14 02:28:15;;;;;;;22.63;4.45;;;;;;;;;;7369070;19;20033;-67
2023/09/14 02:30:40;;;;;;;16.13;3.10;;;;;;;;;;7369256;19;20037;-67
2023/09/14 02:33:07;;;;;;;16.25;3.47;;;;;;;;;;7367023;19;20010;-67
2023/09/14 02:35:36;;;;;;;10.93;3.92;;;;;;;;;;7368888;19;20031;-66
2023/09/14 02:38:02;;;;;;;7.72;2.75;;;;;;;;;;7390078;19;20030;-68
2023/09/14 02:40:29;;;;;;;15.10;3.28;;;;;;;;;;7368516;19;20027;-66
2023/09/14 02:42:54;;;;;;;27.70;5.35;;;;;;;;;;7367226;19;20046;-67
2023/09/14 02:45:20;;;;;;;27.13;4.82;;;;;;;;;;7368833;19;20799;-66
2023/09/14 02:47:45;;;;;;;17.60;3.53;;;;;;;;;;7368866;19;20023;-66
2023/09/14 02:50:10;;;;;;;11.43;3.42;;;;;;;;;;7377389;19;20464;-66
2023/09/14 02:52:36;;;;;;;15.02;2.95;;;;;;;;;;7380566;19;20749;-67
2023/09/14 02:55:01;;;;;;;9.77;2.20;;;;;;;;;;7368236;19;20014;-66
2023/09/14 02:57:26;;;;;;;10.23;2.78;;;;;;;;;;7369387;19;20007;-67
2023/09/14 02:59:55;;;;;;;8.70;2.83;;;;;;;;;;7366843;19;20007;-67
2023/09/14 03:02:24;;;;;;;12.57;3.33;;;;;;;;;;7366059;19;20003;-67
2023/09/14 03:04:49;;;;;;;17.85;3.15;;;;;;;;;;7389473;19;20422;-67
2023/09/14 03:07:15;;;;;;;14.43;3.22;;;;;;;;;;7366845;19;20098;-68
2023/09/14 03:09:41;;;;;;;16.42;3.22;;;;;;;;;;7367913;19;20148;-67
2023/09/14 03:12:07;;;;;;;15.80;3.60;;;;;;;;;;7366632;19;20018;-67
2023/09/14 03:14:32;;;;;;;14.50;3.38;;;;;;;;;;7367448;19;20157;-66
2023/09/14 03:17:00;;;;;;;9.73;3.33;;;;;;;;;;7389368;19;20011;-67
2023/09/14 03:19:26;;;;;;;10.30;3.05;;;;;;;;;;7366612;19;20010;-66
2023/09/14 03:21:51;;;;;;;17.05;3.75;;;;;;;;;;7366030;19;20014;-66
2023/09/14 03:24:17;;;;;;;23.30;3.55;;;;;;;;;;7365602;19;20013;-67
2023/09/14 03:26:42;;;;;;;15.75;3.67;;;;;;;;;;7367323;19;20009;-67
2023/09/14 03:29:07;;;;;;;13.00;2.90;;;;;;;;;;7388013;19;19999;-67
2023/09/14 03:31:33;;;;;;;8.90;2.50;;;;;;;;;;7365535;19;20002;-67
2023/09/14 03:33:58;;;;;;;11.57;2.60;;;;;;;;;;7365812;19;20010;-67
2023/09/14 03:36:24;;;;;;;13.25;3.47;;;;;;;;;;7367684;19;20017;-66
2023/09/14 03:38:49;;;;;;;10.35;3.03;;;;;;;;;;7366617;19;20007;-66
2023/09/14 03:41:14;;;;;;;23.25;4.05;;;;;;;;;;7366744;19;20002;-66
2023/09/14 03:43:40;;;;;;;11.18;3.10;;;;;;;;;;7385651;19;19994;-67
2023/09/14 03:46:06;;;;;;;6.95;2.53;;;;;;;;;;7365822;19;20480;-65
2023/09/14 03:48:31;;;;;;;9.32;2.83;;;;;;;;;;7365549;19;20498;-66
2023/09/14 03:50:59;;;;;;;6.50;2.50;;;;;;;;;;7366962;19;20063;-66
2023/09/14 03:53:25;;;;;;;6.78;2.35;;;;;;;;;;7364837;19;20023;-66
2023/09/14 03:55:52;;;;;;;6.13;2.30;;;;;;;;;;7388357;19;20006;-66
2023/09/14 03:58:17;;;;;;;6.90;2.15;;;;;;;;;;7365862;19;20025;-66
2023/09/14 04:00:43;;;;;;;5.55;2.42;;;;;;;;;;7366532;19;20472;-66
2023/09/14 04:03:08;;;;;;;7.13;2.35;;;;;;;;;;7369378;19;20099;-67
2023/09/14 04:05:33;;;;;;;11.27;2.83;;;;;;;;;;7374232;19;20480;-67
2023/09/14 04:07:59;;;;;;;6.93;2.58;;;;;;;;;;7395812;19;20009;-67
2023/09/14 04:10:24;;;;;;;10.60;2.70;;;;;;;;;;7372948;19;20031;-67
2023/09/14 04:12:49;;;;;;;9.02;2.85;;;;;;;;;;7369995;19;20010;-68
2023/09/14 04:15:15;;;;;;;9.63;2.30;;;;;;;;;;7372694;19;20006;-67
2023/09/14 04:17:40;;;;;;;10.20;2.42;;;;;;;;;;7372351;19;20018;-67
2023/09/14 04:20:09;;;;;;;13.68;2.33;;;;;;;;;;7394780;19;20001;-66
2023/09/14 04:22:35;;;;;;;9.18;2.63;;;;;;;;;;7369599;19;19999;-66
2023/09/14 04:25:01;;;;;;;8.98;2.40;;;;;;;;;;7372787;19;20011;-66
2023/09/14 04:27:26;;;;;;;10.07;3.20;;;;;;;;;;7373904;19;20484;-66
2023/09/14 04:29:52;;;;;;;8.63;2.22;;;;;;;;;;7372203;19;20007;-67
2023/09/14 04:32:17;;;;;;;22.92;3.22;;;;;;;;;;7370352;19;20017;-67
2023/09/14 04:34:42;;;;;;;7.45;2.75;;;;;;;;;;7392587;19;19998;-67
2023/09/14 04:37:08;;;;;;;13.10;2.60;;;;;;;;;;7371319;19;20721;-67
2023/09/14 04:39:34;;;;;;;8.40;2.67;;;;;;;;;;7371424;19;20325;-67
2023/09/14 04:42:00;;;;;;;9.68;2.80;;;;;;;;;;7370387;19;20021;-67
2023/09/14 04:44:25;;;;;;;8.00;3.10;;;;;;;;;;7371773;19;20002;-67
2023/09/14 04:46:51;;;;;;;8.48;2.70;;;;;;;;;;7392030;19;19999;-65
2023/09/14 04:49:16;;;;;;;7.05;2.38;;;;;;;;;;7370778;19;20372;-67
2023/09/14 04:51:41;;;;;;;9.27;3.00;;;;;;;;;;7369865;19;20006;-68
2023/09/14 04:54:07;;;;;;;8.63;3.10;;;;;;;;;;7369898;19;20010;-67
2023/09/14 04:56:32;;;;;;;11.70;3.28;;;;;;;;;;7371076;19;20498;-67
2023/09/14 04:58:57;;;;;;;8.02;3.08;;;;;;;;;;7393639;19;20030;-67
2023/09/14 05:01:23;;;;;;;13.55;3.22;;;;;;;;;;7368935;19;20034;-67
2023/09/14 05:03:48;;;;;;;12.10;3.00;;;;;;;;;;7354357;19;20013;-67
2023/09/14 05:06:13;;;;;;;6.90;2.60;;;;;;;;;;7358548;19;20015;-68
2023/09/14 05:08:39;;;;;;;7.47;2.60;;;;;;;;;;7370030;19;20006;-68
2023/09/14 05:11:04;;;;;;;8.25;2.67;;;;;;;;;;7392091;19;20007;-68
2023/09/14 05:13:30;;;;;;;7.18;2.90;;;;;;;;;;7366465;19;20034;-68
2023/09/14 05:15:55;;;;;;;8.85;2.85;;;;;;;;;;7369919;19;20006;-67
2023/09/14 05:18:21;;;;;;;7.18;2.60;;;;;;;;;;7368290;19;20032;-67
2023/09/14 05:20:49;;;;;;;6.38;2.72;;;;;;;;;;7369849;19;20015;-68
2023/09/14 05:23:14;;;;;;;6.07;2.53;;;;;;;;;;7368094;19;20543;-67
2023/09/14 05:25:40;;;;;;;5.57;2.63;;;;;;;;;;7392513;19;20022;-68
2023/09/14 05:28:07;;;;;;;7.70;2.88;;;;;;;;;;7370726;19;20075;-66
2023/09/14 05:30:32;;;;;;;8.32;2.80;;;;;;;;;;7370988;19;20010;-66
2023/09/14 05:32:58;;;;;;;5.93;2.88;;;;;;;;;;7368843;19;20003;-66
2023/09/14 05:35:24;;;;;;;6.80;2.95;;;;;;;;;;7370276;19;20003;-66
2023/09/14 05:37:49;;;;;;;9.25;3.08;;;;;;;;;;7391230;19;20031;-67
2023/09/14 05:40:14;;;;;;;8.70;2.88;;;;;;;;;;7360769;19;20014;-67
2023/09/14 05:42:41;;;;;;;6.28;2.90;;;;;;;;;;7363641;19;20018;-68
2023/09/14 05:45:08;;;;;;;8.00;3.30;;;;;;;;;;7366502;19;20246;-67
2023/09/14 05:47:34;;;;;;;6.63;3.15;;;;;;;;;;7364199;19;20010;-69
2023/09/14 05:50:00;;;;;;;11.75;3.00;;;;;;;;;;7385564;19;20537;-68
2023/09/14 05:52:25;;;;;;;5.28;2.28;;;;;;;;;;7363091;19;20036;-68
2023/09/14 05:54:50;;;;;;;7.43;2.53;;;;;;;;;;7362942;19;20002;-69
2023/09/14 05:57:16;;;;;;;11.48;2.42;;;;;;;;;;7364647;19;20399;-68
2023/09/14 05:59:41;;;;;;;8.93;2.88;;;;;;;;;;7364431;19;20010;-68
2023/09/14 06:02:08;;;;;;;8.85;2.80;;;;;;;;;;7386256;19;20003;-67
2023/09/14 06:04:33;;;;;;;8.25;2.92;;;;;;;;;;7365007;19;20447;-68
2023/09/14 06:06:59;;;;;;;6.15;2.50;;;;;;;;;;7365171;19;19999;-67
2023/09/14 06:09:26;;;;;;;10.38;3.78;;;;;;;;;;7366133;19;20014;-68
2023/09/14 06:11:51;;;;;;;6.40;2.65;;;;;;;;;;7363439;19;20006;-67
2023/09/14 06:14:17;;;;;;;9.43;2.83;;;;;;;;;;7364385;19;20018;-68
2023/09/14 06:16:42;;;;;;;9.63;2.95;;;;;;;;;;7387468;19;20123;-68
2023/09/14 06:19:07;;;;;;;6.03;2.72;;;;;;;;;;7367397;19;20035;-68
2023/09/14 06:21:34;;;;;;;11.77;2.97;;;;;;;;;;7366374;19;20010;-67
2023/09/14 06:23:59;;;;;;;10.25;3.60;;;;;;;;;;7366829;19;20506;-68
2023/09/14 06:26:27;;;;;;;12.05;3.33;;;;;;;;;;7361906;19;20010;-67
2023/09/14 06:28:53;;;;;;;17.30;3.78;;;;;;;;;;7384393;19;20012;-65
2023/09/14 06:31:19;;;;;;;14.07;3.72;;;;;;;;;;7367354;19;20476;-66
2023/09/14 06:33:44;;;;;;;14.57;3.92;;;;;;;;;;7363900;19;20011;-66
2023/09/14 06:36:09;;;;;;;11.35;2.65;;;;;;;;;;7367480;19;20129;-66
2023/09/14 06:38:35;;;;;;;8.82;2.70;;;;;;;;;;7368867;19;20535;-66
2023/09/14 06:41:00;;;;;;;5.75;2.17;;;;;;;;;;7390082;19;20341;-66
2023/09/14 06:43:25;;;;;;;7.18;2.20;;;;;;;;;;7365467;19;20014;-66
2023/09/14 06:45:50;;;;;;;7.78;2.50;;;;;;;;;;7366287;19;20009;-66
2023/09/14 06:48:16;;;;;;;6.72;2.70;;;;;;;;;;7365473;19;20006;-66
2023/09/14 06:50:41;;;;;;;7.28;2.50;;;;;;;;;;7367044;19;20366;-67
2023/09/14 06:53:08;;;;;;;7.22;2.55;;;;;;;;;;7386632;19;20862;-66
2023/09/14 06:55:37;;;;;;;11.77;2.50;;;;;;;;;;7367175;19;20728;-66
2023/09/14 06:58:02;;;;;;;4.45;2.30;;;;;;;;;;7368029;19;20006;-67
2023/09/14 07:00:28;;;;;;;6.22;1.98;;;;;;;;;;7367707;19;20369;-67
2023/09/14 07:02:53;;;;;;;7.03;2.20;;;;;;;;;;7365231;19;20342;-66
2023/09/14 07:05:19;;;;;;;8.48;2.70;;;;;;;;;;7367447;19;20012;-66
2023/09/14 07:07:44;;;;;;;7.75;2.50;;;;;;;;;;7388684;19;19999;-67
2023/09/14 07:10:10;;;;;;;7.45;2.60;;;;;;;;;;7367256;19;20003;-67
2023/09/14 07:12:36;;;;;;;6.70;2.50;;;;;;;;;;7366217;19;20013;-67
2023/09/14 07:15:02;;;;;;;6.50;2.38;;;;;;;;;;7362953;19;20011;-67
2023/09/14 07:17:27;;;;;;;6.13;2.35;;;;;;;;;;7367121;19;20010;-67
2023/09/14 07:19:53;;;;;;;7.10;2.67;;;;;;;;;;7389094;19;20093;-67
2023/09/14 07:22:18;;;;;;;7.60;2.42;;;;;;;;;;7365286;19;20007;-67
2023/09/14 07:24:44;;;;;;;8.70;2.20;;;;;;;;;;7368027;19;20054;-66
2023/09/14 07:27:09;;;;;;;7.55;2.47;;;;;;;;;;7366716;19;20027;-67
2023/09/14 07:29:35;;;;;;;5.50;2.20;;;;;;;;;;7367884;19;20052;-66
2023/09/14 07:32:01;;;;;;;8.05;2.65;;;;;;;;;;7387141;19;20066;-66
2023/09/14 07:34:27;;;;;;;5.38;2.33;;;;;;;;;;7366362;19;20031;-66
2023/09/14 07:36:52;;;;;;;5.85;2.35;;;;;;;;;;7364192;19;20002;-66
2023/09/14 07:39:18;;;;;;;6.05;2.28;;;;;;;;;;7366718;19;20373;-68
2023/09/14 07:41:43;;;;;;;14.43;2.53;;;;;;;;;;7366176;19;20013;-67
2023/09/14 07:44:08;;;;;;;7.00;1.98;;;;;;;;;;7386253;19;20007;-66
2023/09/14 07:46:33;;;;;;;6.78;2.25;;;;;;;;;;7366287;19;20002;-67
2023/09/14 07:48:59;;;;;;;6.32;2.40;;;;;;;;;;7366574;19;20042;-67
2023/09/14 07:51:25;;;;;;;6.05;2.40;;;;;;;;;;7366412;19;20014;-67
2023/09/14 07:53:51;;;;;;;6.20;2.40;;;;;;;;;;7365197;19;19998;-67
2023/09/14 07:56:16;;;;;;;5.90;2.20;;;;;;;;;;7367161;19;20105;-67
2023/09/14 07:58:42;;;;;;;6.18;2.65;;;;;;;;;;7389365;19;20516;-66
2023/09/14 08:01:07;;;;;;;9.10;3.03;;;;;;;;;;7366720;19;20206;-68
2023/09/14 08:03:32;;;;;;;6.40;2.50;;;;;;;;;;7365524;19;20006;-69
2023/09/14 08:05:58;;;;;;;8.40;2.47;;;;;;;;;;7364855;19;20495;-67
2023/09/14 08:08:23;;;;;;;7.20;2.35;;;;;;;;;;7366713;19;20486;-66
2023/09/14 08:10:53;;;;;;;8.30;2.78;;;;;;;;;;7389146;19;19991;-67
2023/09/14 08:13:19;;;;;;;4.85;2.25;;;;;;;;;;7364450;19;20065;-67
2023/09/14 08:15:45;;;;;;;8.85;2.60;;;;;;;;;;7367786;19;20010;-68
2023/09/14 08:18:11;;;;;;;8.35;2.40;;;;;;;;;;7367474;19;20016;-67
2023/09/14 08:20:42;;;;;;;9.75;2.63;;;;;;;;;;7367431;19;20464;-67
2023/09/14 08:23:09;;;;;;;5.20;2.17;;;;;;;;;;7386179;19;20109;-67
2023/09/14 08:25:35;;;;;;;6.07;2.30;;;;;;;;;;7366195;19;20468;-67
2023/09/14 08:28:01;;;;;;;9.35;2.40;;;;;;;;;;7366551;19;20017;-67
2023/09/14 08:30:26;;;;;;;5.25;2.72;;;;;;;;;;7365668;19;20003;-68
2023/09/14 08:32:52;;;;;;;4.82;2.20;;;;;;;;;;7363454;19;20032;-68
2023/09/14 08:35:25;;;;;;;6.22;2.85;;;;;;;;;;7365654;19;20002;-68
2023/09/14 08:37:54;;;;;;;9.13;2.38;;;;;;;;;;7387162;19;19994;-68
2023/09/14 08:40:21;;;;;;;7.63;2.28;;;;;;;;;;7364705;19;20035;-69
2023/09/14 08:42:51;;;;;;;7.28;2.17;;;;;;;;;;7363555;19;19998;-68
2023/09/14 08:45:24;;;;;;;5.75;2.20;;;;;;;;;;7366118;19;20035;-69
2023/09/14 08:47:50;;;;;;;6.80;2.25;;;;;;;;;;7366308;19;20010;-68
2023/09/14 08:50:17;;;;;;;7.70;2.03;;;;;;;;;;7373033;19;20022;-68
2023/09/14 08:52:44;;;;;;;5.05;1.80;;;;;;;;;;7392480;19;20003;-68
2023/09/14 08:55:10;;;;;;;4.82;1.95;;;;;;;;;;7369957;19;20377;-68
2023/09/14 08:57:38;;;;;;;6.70;2.13;;;;;;;;;;7363893;19;20046;-68
2023/09/14 09:00:08;;;;;;;6.43;2.22;;;;;;;;;;7369864;19;20006;-61
2023/09/14 09:02:35;;;;;;;6.28;2.45;;;;;;;;;;7370260;19;20014;-61
2023/09/14 09:05:02;;;;;;;4.97;1.92;;;;;;;;;;7394104;19;19998;-63
2023/09/14 09:07:28;;;;;;;5.85;2.22;;;;;;;;;;7371155;19;20010;-63
2023/09/14 09:09:53;;;;;;;6.47;2.42;;;;;;;;;;7372485;19;20007;-61
2023/09/14 09:12:19;;;;;;;4.10;1.92;;;;;;;;;;7369967;19;20025;-61
2023/09/14 09:14:45;;;;;;;6.10;2.67;;;;;;;;;;7370369;19;20007;-60
2023/09/14 09:17:11;;;;;;;4.82;2.45;;;;;;;;;;7381312;19;20456;-61
2023/09/14 09:19:47;;;;;;;8.00;2.55;;;;;;;;;;7389912;19;20074;-62
2023/09/14 09:22:14;;;;;;;5.93;2.63;;;;;;;;;;7369599;19;20015;-61
2023/09/14 09:24:40;;;;;;;5.68;2.35;;;;;;;;;;7369762;19;20003;-62
2023/09/14 09:27:24;;;;;;;5.55;2.58;;;;;;;;;;7370809;19;20006;-62
2023/09/14 09:29:50;;;;;;;4.70;2.45;;;;;;;;;;7370947;19;20007;-62
2023/09/14 09:32:22;;;;;;;4.35;1.90;;;;;;;;;;7366494;19;20405;-62
2023/09/14 09:34:47;;;;;;;5.15;2.22;;;;;;;;;;7390557;19;20282;-63
2023/09/14 09:37:12;;;;;;;7.28;2.15;;;;;;;;;;7369675;19;20022;-62
2023/09/14 09:39:38;;;;;;;3.53;1.80;;;;;;;;;;7369962;19;20505;-62
2023/09/14 09:42:04;;;;;;;7.85;2.35;;;;;;;;;;7363048;19;20026;-61
2023/09/14 09:44:30;;;;;;;4.47;2.03;;;;;;;;;;7371149;19;20501;-62
2023/09/14 09:46:56;;;;;;;6.85;2.17;;;;;;;;;;7391798;19;20003;-63
2023/09/14 09:49:23;;;;;;;5.55;2.00;;;;;;;;;;7369176;19;20002;-63
2023/09/14 09:51:50;;;;;;;4.78;1.80;;;;;;;;;;7367832;19;19995;-62
2023/09/14 09:54:19;;;;;;;3.63;1.83;;;;;;;;;;7369655;19;20034;-62
2023/09/14 09:56:44;;;;;;;5.13;3.00;;;;;;;;;;7370486;19;20537;-62
2023/09/14 09:59:10;;;;;;;5.30;2.00;;;;;;;;;;7392219;19;20018;-62
2023/09/14 10:01:37;;;;;;;5.75;1.63;;;;;;;;;;7366997;19;19998;-62
2023/09/14 10:04:07;;;;;;;5.95;1.88;;;;;;;;;;7364720;19;20631;-62
2023/09/14 10:06:33;;;;;;;6.53;2.00;;;;;;;;;;7369728;19;20015;-59
2023/09/14 10:08:59;;;;;;;4.07;1.70;;;;;;;;;;7370784;19;20021;-62
2023/09/14 10:11:26;;;;;;;3.30;1.60;;;;;;;;;;7369880;19;20010;-62
2023/09/14 10:13:52;;;;;;;4.25;1.70;;;;;;;;;;7375514;19;20018;-61
2023/09/14 10:16:22;;;;;;;4.28;1.80;;;;;;;;;;7364394;19;20475;-61
2023/09/14 10:18:52;;;;;;;3.58;1.52;;;;;;;;;;7365581;19;20111;-61
2023/09/14 10:21:19;;;;;;;4.65;1.42;;;;;;;;;;7366446;19;20010;-61
2023/09/14 10:23:45;;;;;;;2.00;1.30;;;;;;;;;;7362672;19;20085;-61
2023/09/14 10:26:11;;;;;;;4.57;1.65;;;;;;;;;;7373513;19;20027;-61
2023/09/14 10:28:38;;;;;;;3.75;1.50;;;;;;;;;;7377362;19;20003;-61
2023/09/14 10:31:05;;;;;;;6.68;2.20;;;;;;;;;;7363828;19;20559;-61
2023/09/14 10:33:30;;;;;;;4.80;1.70;;;;;;;;;;7359892;19;20014;-60
2023/09/14 10:35:56;;;;;;;2.45;1.40;;;;;;;;;;7362665;19;20050;-61
2023/09/14 10:38:25;;;;;;;3.60;1.70;;;;;;;;;;7363214;19;20073;-61
2023/09/14 10:40:52;;;;;;;4.07;1.65;;;;;;;;;;7387463;19;20041;-62
2023/09/14 10:43:17;;;;;;;3.90;1.52;;;;;;;;;;7362947;19;20007;-61
2023/09/14 10:45:45;;;;;;;3.50;1.73;;;;;;;;;;7364469;19;20104;-61
2023/09/14 10:48:18;;;;;;;3.75;1.70;;;;;;;;;;7363913;19;20014;-62
2023/09/14 10:50:43;;;;;;;2.55;1.60;;;;;;;;;;7363751;19;20081;-62
2023/09/14 10:53:09;;;;;;;4.60;1.75;;;;;;;;;;7385478;19;20603;-62
2023/09/14 10:55:38;;;;;;;5.57;1.70;;;;;;;;;;7361431;19;20013;-61
2023/09/14 10:58:04;;;;;;;4.93;1.83;;;;;;;;;;7361275;19;20010;-61
2023/09/14 11:00:38;;;;;;;5.97;1.98;;;;;;;;;;7366357;19;20520;-63
2023/09/14 11:03:04;;;;;;;3.80;1.90;;;;;;;;;;7362884;19;20010;-62
2023/09/14 11:05:40;;;;;;;3.63;1.65;;;;;;;;;;7365141;19;20022;-62
2023/09/14 11:08:06;;;;;;;3.67;1.75;;;;;;;;;;7386585;19;20006;-61
2023/09/14 11:10:34;;;;;;;3.38;1.60;;;;;;;;;;7367007;19;20006;-61
2023/09/14 11:13:21;;;;;;;4.32;1.83;;;;;;;;;;7364223;19;20089;-61
2023/09/14 11:15:53;;;;;;;4.88;1.90;;;;;;;;;;7367034;19;20689;-61
2023/09/14 11:18:18;;;;;;;5.40;1.70;;;;;;;;;;7367954;19;20010;-61
2023/09/14 11:20:45;;;;;;;4.60;1.60;;;;;;;;;;7366301;19;20006;-61
2023/09/14 11:23:11;;;;;;;5.43;2.00;;;;;;;;;;7375468;19;20014;-61
2023/09/14 11:25:41;;;;;;;4.05;1.80;;;;;;;;;;7381726;19;19995;-62
2023/09/14 11:28:19;;;;;;;4.20;1.92;;;;;;;;;;7365316;19;20010;-61
2023/09/14 11:30:47;;;;;;;3.58;1.67;;;;;;;;;;7365646;19;20010;-61
2023/09/14 11:33:13;;;;;;;5.88;2.10;;;;;;;;;;7365226;19;20003;-59
2023/09/14 11:35:44;;;;;;;5.38;2.05;;;;;;;;;;7366289;19;20017;-62
2023/09/14 11:38:18;;;;;;;4.03;1.90;;;;;;;;;;7386488;19;20062;-62
2023/09/14 11:40:44;;;;;;;5.00;1.90;;;;;;;;;;7388663;19;20489;-63
2023/09/14 11:43:19;;;;;;;4.43;1.90;;;;;;;;;;7364014;19;20023;-62
2023/09/14 11:45:45;;;;;;;5.70;1.80;;;;;;;;;;7365724;19;20013;-62
2023/09/14 11:48:12;;;;;;;5.65;2.20;;;;;;;;;;7366770;19;20066;-62
2023/09/14 11:50:41;;;;;;;3.38;1.70;;;;;;;;;;7366927;19;20536;-62
2023/09/14 11:53:08;;;;;;;3.38;1.77;;;;;;;;;;7385977;19;20082;-63
2023/09/14 11:55:34;;;;;;;4.45;1.73;;;;;;;;;;7365177;19;20499;-63
2023/09/14 11:57:59;;;;;;;3.88;1.70;;;;;;;;;;7365531;19;20006;-63
2023/09/14 12:00:36;;;;;;;4.80;1.60;;;;;;;;;;7364941;19;20018;-62
2023/09/14 12:03:02;;;;;;;5.90;2.20;;;;;;;;;;7365234;19;20358;-62
2023/09/14 12:05:27;;;;;;;6.15;1.92;;;;;;;;;;7366336;19;19998;-61
2023/09/14 12:07:53;;;;;;;13.05;3.20;;;;;;;;;;7387790;19;20418;-60
2023/09/14 12:10:19;;;;;;;6.97;2.42;;;;;;;;;;7365798;19;20393;-61
2023/09/14 12:12:44;;;;;;;4.80;1.90;;;;;;;;;;7364188;19;20007;-62
2023/09/14 12:15:22;;;;;;;5.85;2.03;;;;;;;;;;7364817;19;20007;-62
2023/09/14 12:17:52;;;;;;;7.63;2.33;;;;;;;;;;7364910;19;20007;-62
2023/09/14 12:20:18;;;;;;;7.03;2.50;;;;;;;;;;7365496;19;20025;-62
2023/09/14 12:22:45;;;;;;;7.72;2.30;;;;;;;;;;7384612;19;20384;-61
2023/09/14 12:25:13;;;;;;;5.90;1.80;;;;;;;;;;7372513;19;20441;-62
2023/09/14 12:27:39;;;;;;;3.05;1.67;;;;;;;;;;7372504;19;20039;-61
2023/09/14 12:30:07;;;;;;;6.15;2.28;;;;;;;;;;7372743;19;20011;-61
2023/09/14 12:32:34;;;;;;;4.28;1.67;;;;;;;;;;7371164;19;20509;-64
2023/09/14 12:35:00;;;;;;;3.75;1.40;;;;;;;;;;7394588;19;20011;-62
2023/09/14 12:37:26;;;;;;;7.45;2.25;;;;;;;;;;7372413;19;20017;-62
2023/09/14 12:39:52;;;;;;;6.88;2.10;;;;;;;;;;7372568;19;20010;-62
2023/09/14 12:42:22;;;;;;;4.65;1.50;;;;;;;;;;7371477;19;20007;-63
2023/09/14 12:44:48;;;;;;;3.87;1.77;;;;;;;;;;7372657;19;20007;-62
2023/09/14 12:47:14;;;;;;;4.35;1.77;;;;;;;;;;7373419;19;20260;-62
2023/09/14 12:49:39;;;;;;;4.80;1.80;;;;;;;;;;7394689;19;20002;-64
2023/09/14 12:52:08;;;;;;;5.50;1.63;;;;;;;;;;7368723;19;20011;-62
2023/09/14 12:54:33;;;;;;;4.40;1.70;;;;;;;;;;7370972;19;20472;-61
2023/09/14 12:57:08;;;;;;;4.60;1.60;;;;;;;;;;7371487;19;20085;-61
2023/09/14 12:59:33;;;;;;;3.83;1.30;;;;;;;;;;7370832;19;20014;-61
2023/09/14 13:01:58;;;;;;;5.25;1.75;;;;;;;;;;7391866;19;20429;-61
2023/09/14 13:04:23;;;;;;;6.65;2.13;;;;;;;;;;7370761;19;20377;-61
2023/09/14 13:06:49;;;;;;;3.33;1.58;;;;;;;;;;7371190;19;20085;-61
2023/09/14 13:09:15;;;;;;;2.88;1.50;;;;;;;;;;7371814;19;20040;-61
2023/09/14 13:11:40;;;;;;;6.82;1.85;;;;;;;;;;7369511;19;20474;-63
2023/09/14 13:14:07;;;;;;;5.55;2.00;;;;;;;;;;7390571;19;20805;-61
2023/09/14 13:16:33;;;;;;;4.63;1.80;;;;;;;;;;7370180;19;20014;-61
2023/09/14 13:18:59;;;;;;;3.97;1.60;;;;;;;;;;7369983;19;20058;-61
2023/09/14 13:21:25;;;;;;;5.13;1.95;;;;;;;;;;7370276;19;20022;-61
2023/09/14 13:23:52;;;;;;;3.58;1.77;;;;;;;;;;7368887;19;20103;-61
2023/09/14 13:26:17;;;;;;;7.22;1.88;;;;;;;;;;7365775;19;20014;-62
2023/09/14 13:28:42;;;;;;;4.43;1.73;;;;;;;;;;7391868;19;20010;-62
2023/09/14 13:31:10;;;;;;;2.80;1.55;;;;;;;;;;7369323;19;20014;-62
2023/09/14 13:33:35;;;;;;;2.83;1.80;;;;;;;;;;7367363;19;20042;-62
2023/09/14 13:36:01;;;;;;;2.38;1.40;;;;;;;;;;7367980;19;20627;-62
2023/09/14 13:38:30;;;;;;;4.65;1.50;;;;;;;;;;7359616;19;19998;-62
2023/09/14 13:40:56;;;;;;;3.90;1.63;;;;;;;;;;7391180;19;20395;-62
2023/09/14 13:43:23;;;;;;;2.83;1.40;;;;;;;;;;7364460;19;20003;-60
2023/09/14 13:45:49;;;;;;;5.85;1.65;;;;;;;;;;7368592;19;20031;-62
2023/09/14 13:48:14;;;;;;;6.70;1.88;;;;;;;;;;7370385;19;20014;-62
2023/09/14 13:50:40;;;;;;;3.15;1.52;;;;;;;;;;7368678;19;20050;-62
2023/09/14 13:53:08;;;;;;;3.38;1.85;;;;;;;;;;7388686;19;20009;-62
2023/09/14 13:55:33;;;;;;;4.43;1.50;;;;;;;;;;7369055;19;20444;-62
2023/09/14 13:57:58;;;;;;;3.03;1.42;;;;;;;;;;7369436;19;20003;-62
2023/09/14 14:00:24;;;;;;;2.60;1.50;;;;;;;;;;7369811;19;20002;-62
2023/09/14 14:02:54;;;;;;;4.47;1.52;;;;;;;;;;7368305;19;20586;-62
2023/09/14 14:05:19;;;;;;;5.70;1.65;;;;;;;;;;7369414;19;19995;-62
2023/09/14 14:07:45;;;;;;;4.15;1.55;;;;;;;;;;7390885;19;20003;-62
2023/09/14 14:10:11;;;;;;;6.00;2.30;;;;;;;;;;7369269;19;20081;-62
2023/09/14 14:12:37;;;;;;;2.45;1.48;;;;;;;;;;7367395;19;20081;-62
2023/09/14 14:15:04;;;;;;;4.72;1.60;;;;;;;;;;7368359;19;20472;-62
2023/09/14 14:17:29;;;;;;;5.38;2.17;;;;;;;;;;7368828;19;20066;-62
2023/09/14 14:19:54;;;;;;;4.18;1.67;;;;;;;;;;7390924;19;20011;-62
2023/09/14 14:22:20;;;;;;;5.38;2.47;;;;;;;;;;7366665;19;20418;-62
2023/09/14 14:24:45;;;;;;;4.78;1.75;;;;;;;;;;7368085;19;20078;-62
2023/09/14 14:27:14;;;;;;;5.07;1.98;;;;;;;;;;7367751;19;20074;-62
2023/09/14 14:29:40;;;;;;;4.75;1.58;;;;;;;;;;7367960;19;20006;-62
2023/09/14 14:32:05;;;;;;;2.22;1.33;;;;;;;;;;7388949;19;20029;-62
2023/09/14 14:34:31;;;;;;;3.28;1.70;;;;;;;;;;7366837;19;20045;-62
2023/09/14 14:36:57;;;;;;;5.13;1.70;;;;;;;;;;7366501;19;20003;-62